Time;durP1;ratioP1;P1;durP2;ratioP2;P2;SDS_P1;SDS_P2;PMS_P1;PMS_P2;Temp;Humidity;BMP_temperature;BMP_pressure;BME280_temperature;BME280_humidity;BME280_pressure;Samples;Min_cycle;Max_cycle;Signal;HPM_P1;HPM_P2
2022/02/19 00:00:56;;;;;;;3.57;1.53;;;;;;;9.46;65.07;97551.66;4122486;28;20642;-87
2022/02/19 00:02:59;;;;;;;7.10;1.37;;;;;;;9.49;64.73;97556.63;4120985;28;20633;-85
2022/02/19 00:05:02;;;;;;;3.07;1.10;;;;;;;9.45;65.91;97568.19;4117647;28;20662;-85
2022/02/19 00:07:06;;;;;;;7.20;2.30;;;;;;;9.41;65.27;97568.53;4116050;28;20747;-86
2022/02/19 00:09:09;;;;;;;10.60;2.30;;;;;;;9.42;65.25;97583.22;4118892;28;20647;-90
2022/02/19 00:11:13;;;;;;;6.20;1.53;;;;;;;9.36;65.17;97570.63;4118006;28;21195;-86
2022/02/19 00:13:17;;;;;;;7.73;2.00;;;;;;;9.31;64.82;97570.16;4116328;28;21041;-85
2022/02/19 00:15:21;;;;;;;5.37;1.47;;;;;;;9.28;64.52;97578.16;4120649;28;20660;-86
2022/02/19 00:17:24;;;;;;;5.63;1.60;;;;;;;9.31;63.91;97585.75;4122002;28;20676;-86
2022/02/19 00:19:28;;;;;;;12.57;1.90;;;;;;;9.33;64.55;97577.84;4119629;28;20646;-85
2022/02/19 00:21:31;;;;;;;7.07;1.60;;;;;;;9.28;63.37;97579.94;4132583;28;20697;-85
2022/02/19 00:23:34;;;;;;;6.37;1.67;;;;;;;9.32;62.74;97584.81;4127397;28;23435;-85
2022/02/19 00:25:38;;;;;;;7.33;1.73;;;;;;;9.34;63.19;97582.94;4119873;28;20635;-86
2022/02/19 00:27:41;;;;;;;5.73;1.77;;;;;;;9.35;62.03;97575.94;4116003;28;21049;-85
2022/02/19 00:29:45;;;;;;;6.33;1.67;;;;;;;9.29;63.17;97599.81;4124239;28;20649;-85
2022/02/19 00:31:50;;;;;;;6.27;1.60;;;;;;;9.26;63.18;97602.63;4121139;28;20672;-84
2022/02/19 00:33:53;;;;;;;4.07;1.50;;;;;;;9.21;63.68;97600.34;4119131;28;20671;-85
2022/02/19 00:35:56;;;;;;;3.90;1.33;;;;;;;9.23;63.80;97602.84;4121878;28;20647;-84
2022/02/19 00:38:00;;;;;;;5.93;1.90;;;;;;;9.21;63.28;97615.94;4124673;28;20224;-85
2022/02/19 00:40:04;;;;;;;5.70;1.40;;;;;;;9.21;63.79;97622.94;4121299;28;20889;-86
2022/02/19 00:42:07;;;;;;;7.83;2.43;;;;;;;9.20;64.54;97623.88;4115809;28;21221;-86
2022/02/19 00:44:10;;;;;;;7.00;2.00;;;;;;;9.18;64.20;97620.56;4118768;28;21251;-85
2022/02/19 00:46:15;;;;;;;6.73;1.90;;;;;;;9.21;63.89;97635.94;4118903;28;20643;-85
2022/02/19 00:48:20;;;;;;;9.77;1.55;;;;;;;9.23;64.30;97615.84;4121605;28;20683;-84
2022/02/19 00:50:43;;;;;;;4.97;1.40;;;;;;;9.21;64.24;97628.13;4119730;28;20492;-85
2022/02/19 00:52:46;;;;;;;5.27;1.67;;;;;;;9.21;64.36;97635.94;4123617;28;20744;-84
2022/02/19 00:54:49;;;;;;;6.50;1.60;;;;;;;9.21;64.47;97641.97;4108055;28;20640;-86
2022/02/19 00:56:54;;;;;;;13.00;1.90;;;;;;;9.21;64.57;97648.94;4111673;28;20633;-85
2022/02/19 00:59:01;;;;;;;6.07;1.90;;;;;;;9.23;64.26;97654.88;4117574;28;20768;-85
2022/02/19 01:01:04;;;;;;;6.40;1.83;;;;;;;9.26;64.28;97654.66;4117042;28;20653;-86
2022/02/19 01:03:41;;;;;;;8.60;2.00;;;;;;;9.23;64.16;97650.53;4094386;28;20783;-85
2022/02/19 01:05:44;;;;;;;7.93;1.90;;;;;;;9.23;64.20;97652.25;4121346;28;20659;-87
2022/02/19 01:07:48;;;;;;;7.10;1.60;;;;;;;9.24;65.28;97659.16;4118144;28;20636;-85
2022/02/19 01:09:51;;;;;;;7.37;1.83;;;;;;;9.19;64.62;97656.88;4112149;28;20714;-85
2022/02/19 01:11:54;;;;;;;8.53;1.90;;;;;;;9.18;64.32;97668.19;4119939;28;20741;-86
2022/02/19 01:13:59;;;;;;;3.73;1.30;;;;;;;9.28;64.41;97660.59;4122072;28;21311;-85
2022/02/19 01:16:02;;;;;;;7.20;1.73;;;;;;;9.26;64.29;97659.84;4117228;28;21006;-85
2022/02/19 01:18:06;;;;;;;6.93;1.53;;;;;;;9.27;64.65;97667.56;4120344;28;20683;-85
2022/02/19 01:20:11;;;;;;;7.63;1.80;;;;;;;9.22;63.80;97661.84;4115267;28;21839;-86
2022/02/19 01:22:14;;;;;;;4.73;1.53;;;;;;;9.25;63.88;97666.03;4120427;28;20639;-83
2022/02/19 01:24:20;;;;;;;8.13;1.80;;;;;;;9.29;63.03;97670.06;4118269;28;20641;-85
2022/02/19 01:26:24;;;;;;;7.70;1.90;;;;;;;9.25;63.40;97666.03;4133169;28;20641;-86
2022/02/19 01:28:31;;;;;;;6.90;1.83;;;;;;;9.15;63.39;97676.22;4122168;28;20685;-85
2022/02/19 01:30:34;;;;;;;6.27;1.53;;;;;;;9.13;63.22;97675.50;4119236;28;20631;-85
2022/02/19 01:32:39;;;;;;;14.17;2.37;;;;;;;9.11;63.29;97690.38;4122012;28;20636;-86
2022/02/19 01:34:43;;;;;;;10.37;1.40;;;;;;;9.12;62.58;97676.44;4105672;28;20756;-84
2022/02/19 01:36:49;;;;;;;8.97;1.60;;;;;;;9.11;63.91;97676.53;4105000;28;20697;-85
2022/02/19 01:38:52;;;;;;;6.70;1.60;;;;;;;9.12;62.93;97686.00;4117915;28;20651;-86
2022/02/19 01:40:56;;;;;;;7.72;1.60;;;;;;;9.11;62.65;97677.38;4122783;28;20676;-85
2022/02/19 01:42:59;;;;;;;7.03;2.10;;;;;;;9.04;62.21;97678.72;4119971;28;20213;-85
2022/02/19 01:45:07;;;;;;;8.37;1.83;;;;;;;9.05;61.94;97698.59;4123716;28;20743;-85
2022/02/19 01:47:11;;;;;;;8.40;2.13;;;;;;;9.00;61.95;97689.44;4125954;28;21032;-85
2022/02/19 01:49:14;;;;;;;6.53;1.60;;;;;;;8.96;61.43;97694.03;4122155;28;20654;-85
2022/02/19 01:51:18;;;;;;;5.93;1.70;;;;;;;8.84;61.27;97682.78;4136612;28;20790;-84
2022/02/19 01:53:23;;;;;;;6.00;1.50;;;;;;;8.86;61.39;97694.75;4119693;28;20651;-84
2022/02/19 01:55:31;;;;;;;5.43;1.30;;;;;;;8.90;60.62;97710.97;4119949;28;20645;-86
2022/02/19 01:57:57;;;;;;;5.50;1.47;;;;;;;8.90;61.70;97708.38;4123045;28;21042;-85
2022/02/19 02:00:16;;;;;;;8.10;1.40;;;;;;;8.88;61.78;97710.25;4121158;28;20639;-85
2022/02/19 02:02:28;;;;;;;5.37;1.43;;;;;;;8.87;60.37;97713.78;4131284;28;20650;-85
2022/02/19 02:04:59;;;;;;;5.83;1.57;;;;;;;8.87;60.93;97687.78;4123157;28;20639;-85
2022/02/19 02:07:03;;;;;;;5.17;1.40;;;;;;;8.86;60.38;97712.16;4118669;28;20813;-85
2022/02/19 02:09:08;;;;;;;6.65;1.67;;;;;;;8.86;60.76;97723.38;4111269;28;20673;-85
2022/02/19 02:11:14;;;;;;;6.63;2.17;;;;;;;8.84;60.31;97738.25;4141327;28;20245;-85
2022/02/19 02:13:30;;;;;;;5.30;1.20;;;;;;;8.80;60.87;97734.19;4118836;28;20262;-85
2022/02/19 02:15:35;;;;;;;4.22;0.95;;;;;;;8.75;61.19;97735.41;4119941;28;20631;-85
2022/02/19 02:18:01;;;;;;;6.55;1.60;;;;;;;8.80;61.12;97733.34;4134145;28;20210;-85
2022/02/19 02:20:05;;;;;;;7.50;1.60;;;;;;;8.80;61.35;97739.38;4124498;28;20672;-85
2022/02/19 02:22:15;;;;;;;4.27;1.27;;;;;;;8.82;60.49;97734.06;4122220;28;20641;-86
2022/02/19 02:24:18;;;;;;;7.03;1.87;;;;;;;8.80;60.05;97738.56;4121447;28;20633;-84
2022/02/19 02:26:23;;;;;;;5.50;1.60;;;;;;;8.72;60.34;97738.22;4120090;28;20660;-84
2022/02/19 02:28:27;;;;;;;7.50;1.40;;;;;;;8.73;59.94;97743.31;4118180;28;20660;-84
2022/02/19 02:30:30;;;;;;;4.10;1.50;;;;;;;8.74;61.49;97752.78;4127698;28;20618;-86
2022/02/19 02:32:43;;;;;;;7.47;1.30;;;;;;;8.72;60.68;97743.41;4129733;28;20649;-85
2022/02/19 02:34:50;;;;;;;4.57;1.77;;;;;;;8.66;61.31;97741.22;4118303;28;20252;-86
2022/02/19 02:36:54;;;;;;;8.67;2.80;;;;;;;8.63;61.94;97744.88;4118711;28;20208;-84
2022/02/19 02:39:00;;;;;;;4.85;1.13;;;;;;;8.65;60.64;97756.00;4119794;28;20645;-84
2022/02/19 02:41:03;;;;;;;4.63;1.23;;;;;;;8.64;61.44;97761.28;4117065;28;20244;-85
2022/02/19 02:43:07;;;;;;;3.85;1.70;;;;;;;8.62;61.49;97755.38;4103132;28;20296;-86
2022/02/19 02:45:11;;;;;;;6.25;1.95;;;;;;;8.54;61.85;97747.25;4103529;28;20213;-85
2022/02/19 02:47:36;;;;;;;5.83;1.33;;;;;;;8.50;61.38;97767.38;4121140;28;20204;-85
2022/02/19 02:49:40;;;;;;;5.13;1.42;;;;;;;8.43;61.54;97770.47;4113789;28;21015;-86
2022/02/19 02:51:43;;;;;;;7.82;1.63;;;;;;;8.34;61.97;97771.06;4121109;28;20212;-84
2022/02/19 02:53:46;;;;;;;3.85;1.67;;;;;;;8.35;62.03;97770.16;4119616;28;20733;-85
2022/02/19 02:55:51;;;;;;;10.82;2.15;;;;;;;8.39;61.67;97761.25;4117674;28;20234;-85
2022/02/19 02:57:55;;;;;;;6.13;1.52;;;;;;;8.35;62.76;97783.16;4187307;28;20248;-86
2022/02/19 02:59:58;;;;;;;7.30;1.63;;;;;;;8.25;62.57;97766.47;4184904;28;20664;-85
2022/02/19 03:02:03;;;;;;;8.70;1.88;;;;;;;8.27;61.98;97784.56;4101603;28;20209;-85
2022/02/19 03:04:06;;;;;;;9.55;1.80;;;;;;;8.23;63.54;97783.94;4108271;28;20642;-85
2022/02/19 03:06:10;;;;;;;5.77;1.57;;;;;;;8.19;62.35;97789.41;4121274;28;20209;-85
2022/02/19 03:08:17;;;;;;;6.82;1.60;;;;;;;8.09;63.24;97767.53;4138468;28;20643;-85
2022/02/19 03:10:22;;;;;;;11.27;1.40;;;;;;;8.11;63.49;97800.28;4120868;28;20208;-84
2022/02/19 03:12:27;;;;;;;5.00;1.60;;;;;;;8.06;62.28;97789.34;4122762;28;20239;-84
2022/02/19 03:14:31;;;;;;;10.30;1.50;;;;;;;8.07;62.39;97806.59;4136787;28;20280;-86
2022/02/19 03:16:36;;;;;;;4.63;1.70;;;;;;;8.07;63.63;97788.41;4122682;28;20204;-86
2022/02/19 03:18:39;;;;;;;5.10;1.23;;;;;;;8.03;63.43;97792.13;4137233;28;20198;-85
2022/02/19 03:20:44;;;;;;;8.82;1.77;;;;;;;8.00;63.51;97810.50;4136699;28;20215;-84
2022/02/19 03:22:47;;;;;;;9.23;2.10;;;;;;;8.00;62.56;97807.06;4125860;28;20684;-85
2022/02/19 03:24:54;;;;;;;8.68;1.98;;;;;;;7.98;62.86;97809.75;4122861;28;20219;-83
2022/02/19 03:26:58;;;;;;;3.97;1.58;;;;;;;7.97;63.53;97802.91;4120949;28;20213;-86
2022/02/19 03:29:04;;;;;;;5.25;2.28;;;;;;;7.98;63.15;97807.16;4125672;28;20690;-85
2022/02/19 03:31:14;;;;;;;5.03;1.38;;;;;;;7.94;62.01;97814.38;4105879;28;20267;-85
2022/02/19 03:33:24;;;;;;;6.03;1.17;;;;;;;7.90;63.27;97821.53;4118795;28;20263;-85
2022/02/19 03:35:27;;;;;;;7.40;2.20;;;;;;;7.85;63.84;97838.31;4115576;28;20246;-86
2022/02/19 03:37:33;;;;;;;8.85;2.08;;;;;;;7.84;64.06;97847.06;4103051;28;20213;-85
2022/02/19 03:39:45;;;;;;;5.10;1.35;;;;;;;7.83;63.31;97860.94;4121718;28;20769;-85
2022/02/19 03:41:48;;;;;;;6.38;1.48;;;;;;;7.77;62.61;97862.19;4123372;28;20299;-85
2022/02/19 03:43:51;;;;;;;8.23;1.40;;;;;;;7.81;63.76;97852.44;4119407;28;20291;-87
2022/02/19 03:45:56;;;;;;;11.70;1.52;;;;;;;7.85;63.33;97859.09;4123929;28;20211;-85
2022/02/19 03:48:17;;;;;;;4.60;1.30;;;;;;;7.77;63.11;97853.53;4115275;28;20219;-85
2022/02/19 03:50:23;;;;;;;9.18;1.65;;;;;;;7.72;64.37;97855.59;4125615;28;20207;-86
2022/02/19 03:52:27;;;;;;;7.22;2.38;;;;;;;7.71;62.99;97877.28;4120253;28;20216;-85
2022/02/19 03:54:30;;;;;;;8.10;1.70;;;;;;;7.73;63.22;97867.66;4119981;28;20242;-84
2022/02/19 03:56:35;;;;;;;8.80;1.92;;;;;;;7.69;63.15;97890.34;4118726;28;20212;-85
2022/02/19 03:58:42;;;;;;;11.63;2.47;;;;;;;7.55;64.05;97886.91;4118578;28;20241;-85
2022/02/19 04:00:46;;;;;;;9.52;1.75;;;;;;;7.56;65.42;97901.53;4125864;28;20708;-86
2022/02/19 04:02:52;;;;;;;6.10;1.60;;;;;;;7.58;65.05;97899.72;4120302;28;20209;-85
2022/02/19 04:05:00;;;;;;;9.60;1.75;;;;;;;7.53;64.19;97899.97;4123468;28;20649;-85
2022/02/19 04:07:04;;;;;;;6.68;2.45;;;;;;;7.54;64.61;97906.00;4120595;28;20255;-86
2022/02/19 04:09:27;;;;;;;5.93;1.42;;;;;;;7.57;64.21;97905.81;4102826;28;20206;-84
2022/02/19 04:11:31;;;;;;;12.70;2.00;;;;;;;7.57;64.61;97908.41;4119908;28;20216;-85
2022/02/19 04:13:34;;;;;;;5.50;1.92;;;;;;;7.51;64.57;97906.19;4119422;28;20217;-85
2022/02/19 04:15:46;;;;;;;4.45;1.10;;;;;;;7.47;65.63;97920.25;4115698;28;20231;-85
2022/02/19 04:17:50;;;;;;;10.43;1.77;;;;;;;7.45;64.65;97918.69;4118587;28;20209;-86
2022/02/19 04:19:54;;;;;;;5.63;1.45;;;;;;;7.43;65.33;97917.91;4123754;28;20580;-85
2022/02/19 04:21:58;;;;;;;4.45;1.27;;;;;;;7.48;65.43;97921.09;4123644;28;20263;-85
2022/02/19 04:24:03;;;;;;;9.23;1.40;;;;;;;7.45;65.56;97934.25;4131174;28;20286;-85
2022/02/19 04:26:07;;;;;;;2.83;1.30;;;;;;;7.47;65.98;97928.03;4120457;28;20629;-86
2022/02/19 04:28:21;;;;;;;5.80;1.40;;;;;;;7.50;65.71;97922.66;4112138;28;20220;-86
2022/02/19 04:30:27;;;;;;;5.90;1.45;;;;;;;7.46;64.98;97931.56;4133612;28;20471;-84
2022/02/19 04:32:33;;;;;;;8.50;1.70;;;;;;;7.42;65.99;97931.84;4122940;28;20209;-86
2022/02/19 04:34:37;;;;;;;7.03;1.88;;;;;;;7.47;65.44;97938.41;4120862;28;20200;-85
2022/02/19 04:36:41;;;;;;;7.38;1.65;;;;;;;7.44;65.91;97935.97;4107476;28;20217;-85
2022/02/19 04:38:46;;;;;;;7.40;1.45;;;;;;;7.43;65.60;97938.66;4120520;28;20215;-85
2022/02/19 04:40:50;;;;;;;5.50;1.50;;;;;;;7.40;65.43;97957.03;4118946;28;20302;-85
2022/02/19 04:42:54;;;;;;;6.78;1.40;;;;;;;7.40;66.19;97947.50;4120205;28;20627;-85
2022/02/19 04:45:04;;;;;;;6.18;1.40;;;;;;;7.35;64.09;97949.53;4121177;28;20311;-84
2022/02/19 04:47:13;;;;;;;7.53;1.70;;;;;;;7.36;64.70;97951.16;4121233;28;20320;-85
2022/02/19 04:49:19;;;;;;;11.45;1.70;;;;;;;7.32;65.81;97961.81;4107874;28;20218;-85
2022/02/19 04:51:23;;;;;;;13.55;2.08;;;;;;;7.29;65.59;97942.09;4122335;28;20224;-85
2022/02/19 04:53:30;;;;;;;7.43;1.65;;;;;;;7.25;66.42;97976.06;4124404;28;20212;-85
2022/02/19 04:55:34;;;;;;;7.95;1.55;;;;;;;7.22;65.57;97966.69;4120647;28;20228;-86
2022/02/19 04:57:45;;;;;;;8.05;2.10;;;;;;;7.14;65.90;97971.50;4108281;28;20217;-85
2022/02/19 04:59:51;;;;;;;6.57;1.88;;;;;;;7.16;65.91;97967.03;4118816;28;20802;-84
2022/02/19 05:02:01;;;;;;;3.97;1.52;;;;;;;7.09;65.81;97964.88;4120236;28;20242;-86
2022/02/19 05:04:12;;;;;;;7.80;1.52;;;;;;;7.08;66.38;97973.56;4124608;28;20210;-86
2022/02/19 05:06:30;;;;;;;8.32;1.73;;;;;;;7.04;65.76;97964.31;4126455;28;20227;-86
2022/02/19 05:08:39;;;;;;;6.25;1.83;;;;;;;7.09;65.89;97975.25;4125574;28;20238;-85
2022/02/19 05:10:44;;;;;;;6.47;1.45;;;;;;;7.10;65.60;97969.97;4121392;28;20254;-84
2022/02/19 05:12:57;;;;;;;9.25;1.77;;;;;;;7.13;66.38;97971.56;4126833;28;20217;-86
2022/02/19 05:15:03;;;;;;;6.72;1.45;;;;;;;7.15;66.10;97983.50;4125232;28;20291;-85
2022/02/19 05:17:12;;;;;;;9.98;1.90;;;;;;;7.08;66.19;97989.97;4122824;28;20254;-86
2022/02/19 05:19:19;;;;;;;12.07;1.63;;;;;;;7.05;65.91;97999.66;4105148;28;20205;-86
2022/02/19 05:21:22;;;;;;;8.27;1.60;;;;;;;7.05;65.97;97999.66;4111605;28;20229;-85
2022/02/19 05:23:29;;;;;;;9.00;1.90;;;;;;;7.08;65.87;98008.13;4108494;28;20209;-86
2022/02/19 05:25:33;;;;;;;9.07;2.85;;;;;;;7.03;66.49;98005.88;4122919;28;20695;-84
2022/02/19 05:27:37;;;;;;;7.80;1.90;;;;;;;7.00;66.69;98012.06;4121444;28;20514;-86
2022/02/19 05:29:44;;;;;;;6.10;1.50;;;;;;;7.00;66.68;98021.59;4118806;28;20327;-86
2022/02/19 05:31:49;;;;;;;3.80;2.22;;;;;;;6.98;66.67;98037.25;4126972;28;20236;-86
2022/02/19 05:34:16;;;;;;;6.28;2.40;;;;;;;6.98;66.37;98033.81;4118682;28;20617;-86
2022/02/19 05:36:27;;;;;;;9.27;1.70;;;;;;;6.95;66.45;98037.41;4137408;28;20220;-84
2022/02/19 05:38:30;;;;;;;8.30;1.80;;;;;;;6.95;66.88;98047.78;4105312;28;20205;-86
2022/02/19 05:40:34;;;;;;;7.40;1.65;;;;;;;6.92;66.76;98049.72;4105641;28;20218;-85
2022/02/19 05:42:42;;;;;;;9.63;2.03;;;;;;;6.95;67.45;98054.72;4119776;28;20215;-85
2022/02/19 05:44:54;;;;;;;8.07;1.83;;;;;;;6.95;68.08;98059.91;4118483;28;20739;-83
2022/02/19 05:46:57;;;;;;;10.65;1.88;;;;;;;6.99;67.20;98062.25;4103286;28;20221;-83
2022/02/19 05:49:04;;;;;;;8.57;1.92;;;;;;;6.92;67.36;98065.25;4122056;28;20282;-86
2022/02/19 05:51:33;;;;;;;4.82;1.65;;;;;;;6.93;67.76;98067.78;4099600;28;20763;-85
2022/02/19 05:53:43;;;;;;;6.85;1.50;;;;;;;6.97;66.73;98076.22;4119844;28;20231;-86
2022/02/19 05:55:48;;;;;;;10.38;1.88;;;;;;;6.94;67.11;98084.97;4118154;28;20213;-85
2022/02/19 05:57:51;;;;;;;7.25;2.05;;;;;;;6.97;67.30;98078.81;4125344;28;20255;-85
2022/02/19 05:59:54;;;;;;;4.03;1.40;;;;;;;6.95;68.27;98084.06;4122252;28;20712;-86
2022/02/19 06:01:58;;;;;;;4.90;1.60;;;;;;;6.98;68.04;98085.66;4124056;28;20775;-86
2022/02/19 06:04:01;;;;;;;12.90;2.38;;;;;;;7.04;67.47;98091.34;4104735;28;20229;-86
2022/02/19 06:06:04;;;;;;;7.88;1.73;;;;;;;6.99;67.68;98092.50;4107474;28;20451;-86
2022/02/19 06:08:09;;;;;;;8.00;1.95;;;;;;;6.99;68.62;98089.91;4123544;28;20222;-86
2022/02/19 06:10:16;;;;;;;7.35;1.77;;;;;;;7.04;68.06;98087.00;4096595;28;20217;-86
2022/02/19 06:12:22;;;;;;;8.57;1.42;;;;;;;7.00;67.20;98099.38;4114370;28;20251;-85
2022/02/19 06:14:31;;;;;;;10.00;1.80;;;;;;;6.99;68.31;98100.28;4117984;28;20223;-86
2022/02/19 06:16:41;;;;;;;6.55;1.60;;;;;;;7.04;68.00;98101.72;4105648;28;20259;-86
2022/02/19 06:18:46;;;;;;;9.55;1.70;;;;;;;7.03;67.37;98110.41;4136753;28;20265;-86
2022/02/19 06:20:49;;;;;;;6.78;1.58;;;;;;;7.03;67.18;98116.41;4120442;28;20270;-85
2022/02/19 06:23:22;;;;;;;10.35;2.00;;;;;;;7.02;67.94;98134.66;4118655;28;20211;-86
2022/02/19 06:25:25;;;;;;;8.93;2.30;;;;;;;7.02;68.28;98133.81;4123610;28;20292;-85
2022/02/19 06:27:38;;;;;;;9.23;1.60;;;;;;;7.05;67.60;98135.34;4122159;28;20291;-83
2022/02/19 06:29:50;;;;;;;10.70;2.25;;;;;;;7.00;67.11;98135.66;4101503;28;20210;-85
2022/02/19 06:31:59;;;;;;;5.15;1.40;;;;;;;6.91;67.93;98130.97;4122921;28;20319;-84
2022/02/19 06:34:03;;;;;;;8.23;1.80;;;;;;;6.97;66.72;98141.00;4121617;28;20208;-86
2022/02/19 06:36:08;;;;;;;5.55;1.67;;;;;;;7.02;67.89;98139.81;4106352;28;20231;-86
2022/02/19 06:38:11;;;;;;;7.28;1.33;;;;;;;7.04;67.45;98143.19;4183424;28;20311;-85
2022/02/19 06:40:16;;;;;;;5.68;1.70;;;;;;;7.04;68.22;98150.97;4104837;28;20205;-86
2022/02/19 06:42:19;;;;;;;7.85;2.13;;;;;;;7.07;68.20;98150.81;4104392;28;20643;-85
2022/02/19 06:44:30;;;;;;;10.48;2.30;;;;;;;7.12;67.78;98156.56;4119425;28;22263;-86
2022/02/19 06:46:33;;;;;;;4.00;1.50;;;;;;;7.11;67.47;98160.94;4148073;28;20208;-86
2022/02/19 06:48:37;;;;;;;5.10;1.25;;;;;;;7.17;68.33;98172.72;4120834;28;20249;-85
2022/02/19 06:50:40;;;;;;;8.82;1.85;;;;;;;7.17;67.79;98176.16;4102355;28;20209;-86
2022/02/19 06:52:44;;;;;;;7.10;1.83;;;;;;;7.16;67.65;98173.66;4108412;28;20212;-87
2022/02/19 06:54:50;;;;;;;6.88;1.90;;;;;;;7.19;67.66;98183.88;4110354;28;20663;-85
2022/02/19 06:56:58;;;;;;;6.05;1.55;;;;;;;7.22;67.61;98187.13;4117793;28;20240;-87
2022/02/19 06:59:03;;;;;;;6.30;1.60;;;;;;;7.22;68.17;98181.09;4100360;28;20236;-87
2022/02/19 07:01:10;;;;;;;5.18;1.60;;;;;;;7.21;67.58;98182.84;4122647;28;20730;-88
2022/02/19 07:03:14;;;;;;;8.25;2.28;;;;;;;7.17;66.94;98190.88;4104958;28;20208;-86
2022/02/19 07:05:21;;;;;;;5.95;1.50;;;;;;;7.12;67.10;98193.72;4188652;28;20197;-84
2022/02/19 07:07:43;;;;;;;9.15;1.70;;;;;;;7.11;67.29;98209.34;4121444;28;20790;-86
2022/02/19 07:09:46;;;;;;;5.07;1.63;;;;;;;7.10;67.54;98211.09;4120610;28;20219;-86
2022/02/19 07:11:49;;;;;;;11.68;2.65;;;;;;;7.11;67.64;98219.72;4134942;28;20207;-86
2022/02/19 07:13:52;;;;;;;7.25;1.45;;;;;;;7.11;67.68;98219.72;4118193;28;20251;-86
2022/02/19 07:15:55;;;;;;;9.68;1.90;;;;;;;7.12;67.58;98235.19;4127080;28;20216;-87
2022/02/19 07:18:14;;;;;;;5.55;1.30;;;;;;;7.03;67.40;98218.47;4116546;28;20220;-85
2022/02/19 07:20:35;;;;;;;4.05;1.45;;;;;;;7.03;67.19;98230.47;4102998;28;20232;-87
2022/02/19 07:22:38;;;;;;;10.10;2.10;;;;;;;7.05;68.24;98243.38;4125993;28;20799;-86
2022/02/19 07:24:41;;;;;;;2.97;1.33;;;;;;;7.02;67.53;98253.91;4132612;28;20208;-86
2022/02/19 07:26:44;;;;;;;6.00;1.50;;;;;;;7.03;68.25;98240.84;4121426;28;20206;-84
2022/02/19 07:28:51;;;;;;;4.80;1.40;;;;;;;6.99;68.20;98261.00;4123010;28;20197;-85
2022/02/19 07:30:56;;;;;;;8.65;1.40;;;;;;;6.99;67.73;98232.50;4121074;28;20244;-85
2022/02/19 07:33:00;;;;;;;10.35;1.75;;;;;;;6.96;67.77;98243.00;4131179;28;20210;-84
2022/02/19 07:35:21;;;;;;;7.50;1.65;;;;;;;6.93;68.03;98258.72;4119579;28;20215;-86
2022/02/19 07:37:25;;;;;;;8.32;1.88;;;;;;;6.90;68.22;98277.03;4117280;28;20883;-85
2022/02/19 07:39:28;;;;;;;6.72;1.50;;;;;;;6.90;69.42;98266.66;4118788;28;20213;-87
2022/02/19 07:41:39;;;;;;;6.85;1.65;;;;;;;6.93;68.42;98284.66;4122767;28;20618;-84
2022/02/19 07:43:54;;;;;;;7.05;1.75;;;;;;;6.94;68.47;98276.78;4117738;28;20335;-86
2022/02/19 07:46:04;;;;;;;6.97;1.60;;;;;;;6.94;68.91;98281.97;4120101;28;20303;-86
2022/02/19 07:48:33;;;;;;;8.40;1.90;;;;;;;7.04;68.65;98293.56;4116477;28;20256;-86
2022/02/19 07:58:35;;;;;;;8.10;1.45;;;;;;;7.25;67.80;98293.28;4079751;28;20235;-85
2022/02/19 08:00:38;;;;;;;7.45;1.40;;;;;;;7.26;68.61;98300.16;4101831;28;20220;-86
2022/02/19 08:02:43;;;;;;;8.32;1.67;;;;;;;7.28;68.41;98303.50;4099723;28;20214;-85
2022/02/19 08:04:47;;;;;;;6.03;1.60;;;;;;;7.34;68.01;98303.19;4127029;28;20245;-85
2022/02/19 08:06:52;;;;;;;5.15;1.60;;;;;;;7.43;67.83;98299.25;4117333;28;20204;-84
2022/02/19 08:08:55;;;;;;;5.78;1.90;;;;;;;7.50;67.60;98299.72;4119349;28;20201;-86
2022/02/19 08:11:05;;;;;;;4.80;1.23;;;;;;;7.53;67.31;98293.50;4120998;28;20258;-85
2022/02/19 08:13:08;;;;;;;6.10;1.67;;;;;;;7.67;66.40;98301.41;4119387;28;20220;-84
2022/02/19 08:15:12;;;;;;;9.20;2.13;;;;;;;7.87;66.81;98308.97;4115757;28;20212;-84
2022/02/19 08:17:15;;;;;;;8.27;1.60;;;;;;;7.99;66.13;98314.31;4121333;28;20220;-82
2022/02/19 08:19:18;;;;;;;9.75;2.83;;;;;;;8.17;65.99;98308.16;4113684;28;20296;-83
2022/02/19 08:21:23;;;;;;;7.07;1.60;;;;;;;8.29;65.71;98305.72;4121475;28;20210;-84
2022/02/19 08:23:28;;;;;;;8.02;1.77;;;;;;;8.41;64.07;98307.63;4124877;28;20200;-83
2022/02/19 08:25:32;;;;;;;10.75;2.63;;;;;;;8.47;64.21;98312.47;4125212;28;20238;-84
2022/02/19 08:27:39;;;;;;;10.35;2.10;;;;;;;8.53;65.37;98315.56;4120469;28;20565;-83
2022/02/19 08:29:42;;;;;;;7.07;1.40;;;;;;;8.67;65.24;98310.41;4128023;28;20201;-84
2022/02/19 08:31:46;;;;;;;12.38;1.98;;;;;;;8.80;64.50;98321.78;4128573;28;20228;-83
2022/02/19 08:33:49;;;;;;;8.97;1.43;;;;;;;8.99;64.48;98319.78;4123270;28;20196;-82
2022/02/19 08:35:52;;;;;;;7.70;1.92;;;;;;;9.21;62.83;98323.63;4120319;28;20630;-83
2022/02/19 08:37:55;;;;;;;6.15;1.70;;;;;;;9.43;63.99;98337.88;4102836;28;20316;-83
2022/02/19 08:40:00;;;;;;;9.00;1.90;;;;;;;9.57;63.71;98331.84;4126969;28;20206;-84
2022/02/19 08:42:04;;;;;;;5.65;1.75;;;;;;;9.58;63.06;98328.31;4121500;28;20216;-82
2022/02/19 08:44:07;;;;;;;5.55;1.75;;;;;;;9.70;63.29;98322.38;4121731;28;20272;-84
2022/02/19 08:46:10;;;;;;;5.65;1.75;;;;;;;9.81;62.78;98330.34;4121005;28;20231;-84
2022/02/19 08:48:15;;;;;;;4.53;1.90;;;;;;;9.76;62.06;98332.38;4141754;28;20223;-84
2022/02/19 08:50:18;;;;;;;9.13;1.80;;;;;;;9.84;61.90;98337.03;4107724;28;20293;-83
2022/02/19 08:52:22;;;;;;;9.85;2.15;;;;;;;9.90;62.71;98336.66;4126375;28;20648;-84
2022/02/19 08:54:25;;;;;;;9.47;1.83;;;;;;;10.01;62.64;98352.53;4119987;28;20237;-84
2022/02/19 08:56:29;;;;;;;6.33;1.80;;;;;;;10.11;61.75;98339.75;4127282;28;20657;-83
2022/02/19 08:58:33;;;;;;;11.30;2.15;;;;;;;10.15;60.61;98343.81;4113510;28;20655;-84
2022/02/19 09:00:37;;;;;;;6.43;1.90;;;;;;;10.19;61.48;98347.91;4120064;28;20209;-79
2022/02/19 09:02:40;;;;;;;7.93;1.73;;;;;;;10.26;60.76;98334.41;4117903;28;20724;-86
2022/02/19 09:04:43;;;;;;;4.57;1.50;;;;;;;10.28;60.47;98350.78;4118333;28;20684;-86
2022/02/19 09:06:47;;;;;;;7.37;2.27;;;;;;;10.09;60.50;98347.66;4134422;28;20988;-86
2022/02/19 09:08:50;;;;;;;7.37;1.57;;;;;;;10.13;60.56;98332.66;4123653;28;20646;-84
2022/02/19 09:10:53;;;;;;;6.50;1.67;;;;;;;10.15;60.97;98344.66;4119576;28;20726;-86
2022/02/19 09:12:58;;;;;;;8.50;1.90;;;;;;;10.18;60.85;98351.44;4118525;28;20678;-83
2022/02/19 09:15:01;;;;;;;8.53;2.57;;;;;;;10.13;60.70;98349.16;4118444;28;20736;-87
2022/02/19 09:17:06;;;;;;;6.30;1.57;;;;;;;10.08;60.41;98345.97;4121286;28;20718;-84
2022/02/19 09:19:10;;;;;;;8.43;1.80;;;;;;;10.18;61.00;98341.88;4121337;28;20691;-84
2022/02/19 09:21:13;;;;;;;5.20;1.20;;;;;;;10.29;60.59;98352.47;4120366;28;21228;-85
2022/02/19 09:23:18;;;;;;;5.60;1.67;;;;;;;10.35;60.79;98339.03;4120464;28;20718;-83
2022/02/19 09:25:21;;;;;;;8.93;1.50;;;;;;;10.41;60.47;98349.06;4131270;28;21840;-86
2022/02/19 09:27:25;;;;;;;7.20;1.57;;;;;;;10.49;59.73;98352.88;4117752;28;20641;-84
2022/02/19 09:29:33;;;;;;;8.93;2.03;;;;;;;10.51;59.36;98348.41;4109548;28;21065;-85
2022/02/19 09:31:37;;;;;;;6.67;1.60;;;;;;;10.48;59.26;98360.81;4125674;28;20669;-85
2022/02/19 09:33:43;;;;;;;7.33;1.70;;;;;;;10.48;59.84;98366.00;4122102;28;21095;-85
2022/02/19 09:35:46;;;;;;;3.80;1.60;;;;;;;10.55;60.90;98372.50;4123391;28;20647;-86
2022/02/19 09:37:51;;;;;;;7.80;1.60;;;;;;;10.63;60.40;98370.22;4119895;28;21230;-85
2022/02/19 09:39:57;;;;;;;8.27;1.73;;;;;;;10.70;59.86;98364.53;4123731;28;20666;-86
2022/02/19 09:42:03;;;;;;;7.60;2.10;;;;;;;10.75;59.59;98369.44;4122086;28;20647;-84
2022/02/19 09:44:08;;;;;;;4.47;1.40;;;;;;;10.72;59.74;98367.03;4120995;28;20620;-85
2022/02/19 09:46:15;;;;;;;4.90;1.90;;;;;;;10.76;60.29;98371.13;4122746;28;21218;-84
2022/02/19 09:48:19;;;;;;;8.63;2.13;;;;;;;10.80;59.79;98366.44;4120404;28;20634;-82
2022/02/19 09:50:22;;;;;;;5.60;1.77;;;;;;;10.82;60.18;98368.94;4116041;28;20637;-84
2022/02/19 09:52:26;;;;;;;7.53;1.73;;;;;;;10.88;60.51;98377.25;4123412;28;20708;-84
2022/02/19 09:54:29;;;;;;;5.70;1.60;;;;;;;10.99;60.30;98385.19;4124187;28;20645;-83
2022/02/19 09:56:34;;;;;;;7.03;2.10;;;;;;;10.98;58.79;98377.47;4130657;28;21002;-83
2022/02/19 09:58:41;;;;;;;5.37;1.57;;;;;;;11.02;58.04;98379.78;4130283;28;21686;-84
2022/02/19 10:00:46;;;;;;;8.23;1.80;;;;;;;11.06;58.44;98388.22;4123197;28;20669;-83
2022/02/19 10:02:50;;;;;;;6.43;1.60;;;;;;;11.16;57.98;98384.09;4123556;28;21075;-83
2022/02/19 10:04:54;;;;;;;7.87;1.50;;;;;;;11.23;59.59;98390.56;4120745;28;21003;-84
2022/02/19 10:07:02;;;;;;;5.07;1.53;;;;;;;11.27;58.29;98384.22;4109373;28;21155;-82